Time;durP1;ratioP1;P1;durP2;ratioP2;P2;SDS_P1;SDS_P2;PMS_P1;PMS_P2;Temp;Humidity;BMP_temperature;BMP_pressure;BME280_temperature;BME280_humidity;BME280_pressure;Samples;Min_cycle;Max_cycle;Signal;HPM_P1;HPM_P2
2023/03/11 00:02:01;;;;;;;27.08;15.00;;;;;;;9.29;93.37;93403.25;5010481;28;20049;-77
2023/03/11 00:04:28;;;;;;;29.25;15.18;;;;;;;9.16;94.38;93399.63;5010588;28;20045;-78
2023/03/11 00:06:53;;;;;;;17.27;10.57;;;;;;;9.64;93.28;93486.91;5010169;28;20026;-77
2023/03/11 00:09:19;;;;;;;9.88;6.80;;;;;;;9.35;91.32;93475.31;5010721;28;20488;-77
2023/03/11 00:11:44;;;;;;;11.20;3.97;;;;;;;9.28;90.23;93486.34;5051713;28;20124;-77
2023/03/11 00:14:10;;;;;;;9.05;4.45;;;;;;;8.98;91.17;93448.25;5014213;28;20033;-77
2023/03/11 00:16:35;;;;;;;3.72;1.88;;;;;;;8.95;90.12;93458.66;5010201;28;20448;-78
2023/03/11 00:19:00;;;;;;;3.03;2.00;;;;;;;9.01;91.32;93460.84;5010122;28;20065;-78
2023/03/11 00:21:26;;;;;;;6.72;2.20;;;;;;;8.94;93.87;93454.44;5010189;28;20556;-77
2023/03/11 00:23:51;;;;;;;2.15;1.42;;;;;;;8.81;94.64;93461.38;5059584;28;20423;-77
2023/03/11 00:26:17;;;;;;;7.80;2.00;;;;;;;8.81;94.35;93446.31;5010084;28;20053;-77
2023/03/11 00:28:42;;;;;;;4.85;1.48;;;;;;;8.24;95.10;93360.03;5010272;28;20030;-77
2023/03/11 00:31:09;;;;;;;2.00;1.30;;;;;;;8.40;95.48;93401.63;5009933;28;20096;-77
2023/03/11 00:33:35;;;;;;;5.78;1.20;;;;;;;8.66;95.74;93443.28;5015779;28;20407;-78
2023/03/11 00:36:00;;;;;;;4.18;1.67;;;;;;;8.89;96.02;93455.38;5044675;28;20041;-77
2023/03/11 00:38:26;;;;;;;4.93;1.38;;;;;;;8.18;94.69;93346.16;5028457;28;20034;-78
2023/03/11 00:40:51;;;;;;;1.77;1.10;;;;;;;8.34;94.84;93365.09;5028177;28;20037;-77
2023/03/11 00:43:17;;;;;;;1.83;1.23;;;;;;;8.22;94.85;93326.00;5018252;28;20141;-78
2023/03/11 00:45:42;;;;;;;3.47;1.20;;;;;;;8.76;94.86;93390.16;5009800;28;20042;-77
2023/03/11 00:48:08;;;;;;;4.05;1.17;;;;;;;9.21;92.75;93460.31;5009566;28;20416;-78
2023/03/11 00:50:36;;;;;;;2.22;1.00;;;;;;;9.26;92.50;93441.66;5009863;28;20034;-77
2023/03/11 00:53:02;;;;;;;3.90;1.35;;;;;;;9.33;92.12;93429.84;5009376;28;20365;-76
2023/03/11 00:55:31;;;;;;;4.50;0.95;;;;;;;8.92;91.70;93335.81;5010067;28;20129;-76
2023/03/11 00:57:59;;;;;;;3.20;1.33;;;;;;;9.61;90.73;93416.03;5008924;28;20044;-78
2023/03/11 01:00:25;;;;;;;3.50;1.23;;;;;;;9.74;91.21;93405.66;5026984;28;20032;-76
2023/03/11 01:02:53;;;;;;;3.70;1.05;;;;;;;9.89;91.25;93405.19;5028955;28;20391;-76
2023/03/11 01:05:20;;;;;;;4.97;1.15;;;;;;;9.96;91.22;93403.63;5028983;28;20514;-77
2023/03/11 01:07:46;;;;;;;2.30;0.98;;;;;;;10.01;89.83;93407.97;5027455;28;20033;-77
2023/03/11 01:10:12;;;;;;;6.00;1.30;;;;;;;9.34;89.52;93296.50;5028695;28;20411;-77
2023/03/11 01:12:37;;;;;;;1.00;0.80;;;;;;;10.11;89.64;93414.84;5028819;28;20087;-77
2023/03/11 01:15:04;;;;;;;2.63;1.20;;;;;;;10.02;89.33;93383.84;5027972;28;20037;-77
2023/03/11 01:17:29;;;;;;;1.40;1.10;;;;;;;10.17;89.77;93395.03;5028534;28;20478;-77
2023/03/11 01:19:55;;;;;;;3.20;1.20;;;;;;;10.17;88.92;93385.25;5016450;28;20038;-77
2023/03/11 01:22:20;;;;;;;3.22;1.25;;;;;;;10.08;88.32;93381.78;5007438;28;20333;-77
2023/03/11 01:24:45;;;;;;;2.30;1.00;;;;;;;9.33;89.19;93248.09;5008009;28;20049;-77
2023/03/11 01:27:11;;;;;;;2.63;1.20;;;;;;;10.00;88.36;93359.53;5025665;28;20033;-77
2023/03/11 01:29:36;;;;;;;3.88;1.45;;;;;;;9.52;88.61;93269.75;5043745;28;20037;-77
2023/03/11 01:32:02;;;;;;;4.32;1.17;;;;;;;9.39;88.52;93243.41;5010010;28;20033;-77
2023/03/11 01:34:27;;;;;;;1.30;1.20;;;;;;;10.25;88.61;93354.53;5010931;28;20488;-77
2023/03/11 01:36:53;;;;;;;2.78;1.38;;;;;;;10.21;87.73;93350.97;5027843;28;20068;-77
2023/03/11 01:39:18;;;;;;;2.55;1.10;;;;;;;10.14;88.51;93340.84;5025402;28;20076;-77
2023/03/11 01:41:44;;;;;;;2.75;1.30;;;;;;;10.18;88.50;93336.47;5009322;28;20444;-77
2023/03/11 01:44:12;;;;;;;1.88;1.30;;;;;;;9.81;87.46;93279.66;5014326;28;20095;-77
2023/03/11 01:46:53;;;;;;;4.63;1.63;;;;;;;10.27;87.88;93323.22;5027423;28;20037;-77
2023/03/11 01:49:20;;;;;;;5.60;1.40;;;;;;;10.14;88.02;93337.41;5028675;28;20045;-77
2023/03/11 01:51:52;;;;;;;4.72;1.60;;;;;;;9.49;87.30;93230.66;5017426;28;20382;-77
2023/03/11 01:54:27;;;;;;;5.13;2.30;;;;;;;9.98;88.32;93300.81;5008748;28;20029;-77
2023/03/11 01:56:54;;;;;;;6.43;2.75;;;;;;;9.94;88.36;93302.53;5024114;28;20026;-77
2023/03/11 01:59:27;;;;;;;9.10;3.75;;;;;;;9.45;88.96;93287.16;5026810;28;20586;-77
2023/03/11 02:02:18;;;;;;;9.82;4.25;;;;;;;9.78;89.58;93349.09;5027419;28;20080;-77
2023/03/11 02:04:43;;;;;;;8.40;3.97;;;;;;;9.60;89.66;93323.75;5029068;28;20039;-77
2023/03/11 02:07:10;;;;;;;7.00;4.25;;;;;;;9.52;89.06;93290.91;5027533;28;20026;-78
2023/03/11 02:09:36;;;;;;;7.65;3.90;;;;;;;9.96;88.56;93357.81;5026862;28;20056;-78
2023/03/11 02:12:04;;;;;;;4.72;3.45;;;;;;;9.16;88.30;93243.59;5027077;28;20025;-78
2023/03/11 02:14:30;;;;;;;4.38;2.92;;;;;;;10.11;88.05;93367.16;5027161;28;20503;-78
2023/03/11 02:16:57;;;;;;;8.95;3.47;;;;;;;9.51;88.15;93309.72;5014824;28;20033;-77
2023/03/11 02:19:22;;;;;;;6.22;3.05;;;;;;;10.08;88.11;93379.16;5024379;28;20060;-78
2023/03/11 02:21:48;;;;;;;7.28;2.58;;;;;;;9.95;87.52;93390.69;5030819;28;20068;-77
2023/03/11 02:24:49;;;;;;;4.00;2.63;;;;;;;9.88;87.42;93383.22;5031861;28;20499;-77
2023/03/11 02:27:18;;;;;;;4.13;2.67;;;;;;;9.57;88.10;93393.94;5027780;28;20471;-77
2023/03/11 02:29:48;;;;;;;4.15;2.58;;;;;;;9.17;88.96;93366.00;5018913;28;20056;-77
2023/03/11 02:32:14;;;;;;;4.90;3.13;;;;;;;8.98;89.02;93347.00;5031518;28;20099;-77
2023/03/11 02:34:40;;;;;;;7.43;3.35;;;;;;;8.96;89.74;93320.09;5020891;28;20133;-77
2023/03/11 02:37:14;;;;;;;6.78;3.60;;;;;;;9.54;89.33;93385.84;5010779;28;20120;-77
2023/03/11 02:39:43;;;;;;;5.70;3.95;;;;;;;9.08;88.09;93313.09;5010768;28;20429;-78
2023/03/11 02:42:31;;;;;;;10.15;3.97;;;;;;;9.39;87.72;93349.25;5011495;28;20389;-78
2023/03/11 02:45:09;;;;;;;5.45;3.20;;;;;;;9.27;87.24;93337.41;5012516;28;20050;-77
2023/03/11 02:47:37;;;;;;;7.05;3.25;;;;;;;9.21;88.03;93324.66;5032129;28;20044;-77
2023/03/11 02:50:04;;;;;;;6.03;2.90;;;;;;;9.78;87.40;93386.16;5042623;28;20044;-77
2023/03/11 02:52:34;;;;;;;5.57;2.40;;;;;;;9.51;84.79;93371.38;5010723;28;20032;-77
2023/03/11 02:55:00;;;;;;;4.78;2.38;;;;;;;9.46;85.88;93371.50;5012096;28;20542;-77
2023/03/11 02:57:26;;;;;;;5.47;2.45;;;;;;;9.07;84.78;93311.56;5040757;28;20025;-78
2023/03/11 02:59:51;;;;;;;5.22;2.10;;;;;;;9.37;84.53;93357.50;5022351;28;20034;-75
2023/03/11 03:02:17;;;;;;;6.38;2.00;;;;;;;9.53;83.93;93363.91;5011383;28;20060;-75
2023/03/11 03:04:43;;;;;;;3.95;1.60;;;;;;;9.12;83.08;93319.34;5012078;28;20034;-75
2023/03/11 03:07:08;;;;;;;5.18;1.75;;;;;;;9.37;83.29;93369.97;5012081;28;20113;-75
2023/03/11 03:09:35;;;;;;;3.22;1.90;;;;;;;9.15;85.41;93347.06;5021059;28;20029;-75
2023/03/11 03:12:01;;;;;;;5.05;2.50;;;;;;;9.47;86.00;93367.00;5027736;28;20032;-75
2023/03/11 03:14:27;;;;;;;4.32;2.88;;;;;;;9.19;86.57;93309.09;5010065;28;20046;-75
2023/03/11 03:16:53;;;;;;;4.95;3.42;;;;;;;9.54;85.80;93336.34;5013610;28;20072;-75
2023/03/11 03:19:18;;;;;;;7.32;4.43;;;;;;;9.68;86.53;93360.81;5030649;28;20025;-76
2023/03/11 03:21:44;;;;;;;4.63;3.95;;;;;;;9.93;86.13;93383.06;5026557;28;20038;-76
2023/03/11 03:24:09;;;;;;;8.90;4.80;;;;;;;9.98;87.39;93400.66;5011894;28;20507;-76
2023/03/11 03:26:36;;;;;;;7.15;4.45;;;;;;;9.58;86.69;93331.22;5036212;28;20557;-76
2023/03/11 03:29:01;;;;;;;11.38;4.80;;;;;;;10.07;87.30;93399.56;5025320;28;20058;-76
2023/03/11 03:31:27;;;;;;;6.60;4.80;;;;;;;9.97;86.83;93377.94;5019685;28;20349;-76
2023/03/11 03:33:52;;;;;;;8.20;5.10;;;;;;;10.15;86.80;93410.47;5030425;28;20120;-76
2023/03/11 03:36:17;;;;;;;6.65;4.68;;;;;;;10.17;86.81;93410.94;5031651;28;20041;-76
2023/03/11 03:38:43;;;;;;;12.13;5.13;;;;;;;10.19;86.33;93403.47;5031650;28;20033;-76
2023/03/11 03:41:12;;;;;;;10.05;5.30;;;;;;;10.24;86.57;93398.00;5031668;28;20033;-76
2023/03/11 03:43:37;;;;;;;10.52;5.53;;;;;;;10.07;86.74;93364.34;5030965;28;20089;-75
2023/03/11 03:46:04;;;;;;;7.35;5.78;;;;;;;10.19;86.69;93374.34;5031512;28;20044;-75
2023/03/11 03:48:30;;;;;;;6.65;4.45;;;;;;;9.93;86.09;93332.75;5029924;28;20030;-76
2023/03/11 03:50:55;;;;;;;7.53;5.15;;;;;;;10.19;86.50;93396.31;5061559;28;20098;-76
2023/03/11 03:53:21;;;;;;;13.23;5.28;;;;;;;10.27;85.94;93395.53;5012378;28;20036;-76
2023/03/11 03:55:48;;;;;;;8.35;4.85;;;;;;;10.27;86.59;93392.09;5047233;28;20094;-76
2023/03/11 03:58:14;;;;;;;7.03;5.00;;;;;;;9.97;87.25;93370.75;5027470;28;20165;-76
2023/03/11 04:00:39;;;;;;;7.50;5.00;;;;;;;10.26;86.68;93377.28;5012109;28;20164;-76
2023/03/11 04:03:05;;;;;;;7.28;4.53;;;;;;;10.07;85.83;93381.00;5011484;28;20469;-77
2023/03/11 04:05:31;;;;;;;7.95;4.82;;;;;;;10.17;86.83;93384.44;5011625;28;20393;-76
2023/03/11 04:07:56;;;;;;;10.95;5.55;;;;;;;9.85;86.17;93322.16;5010587;28;20173;-77
2023/03/11 04:10:22;;;;;;;9.70;5.20;;;;;;;9.78;86.41;93346.47;5020438;28;20104;-76
2023/03/11 04:12:47;;;;;;;9.60;5.25;;;;;;;9.74;86.67;93358.78;5045835;28;20482;-77
2023/03/11 04:15:13;;;;;;;8.07;4.70;;;;;;;9.90;86.35;93362.50;5031282;28;20039;-77
2023/03/11 04:17:38;;;;;;;8.23;4.07;;;;;;;9.31;85.79;93262.75;5030232;28;20108;-74
2023/03/11 04:20:08;;;;;;;7.78;4.80;;;;;;;9.84;86.04;93363.75;5016211;28;20145;-77
2023/03/11 04:22:34;;;;;;;7.13;4.75;;;;;;;9.82;85.25;93368.59;5053894;28;20029;-77
2023/03/11 04:25:00;;;;;;;6.13;4.57;;;;;;;9.91;86.19;93366.72;5028516;28;20049;-77
2023/03/11 04:27:25;;;;;;;3.40;2.17;;;;;;;9.41;82.56;93318.75;5027945;28;20033;-74
2023/03/11 04:29:51;;;;;;;2.67;1.80;;;;;;;9.82;77.82;93396.94;5011307;28;20037;-77
2023/03/11 04:32:16;;;;;;;1.98;1.40;;;;;;;9.68;77.46;93352.09;5010516;28;20496;-77
2023/03/11 04:34:42;;;;;;;3.38;1.98;;;;;;;9.73;78.88;93362.50;5013352;28;20108;-77
2023/03/11 04:37:07;;;;;;;3.83;1.10;;;;;;;9.86;76.42;93393.34;5031099;28;20108;-77
2023/03/11 04:39:33;;;;;;;1.00;0.90;;;;;;;9.47;73.45;93325.44;5030776;28;20091;-77
2023/03/11 04:41:58;;;;;;;1.55;0.90;;;;;;;9.40;72.83;93317.19;5030483;28;20037;-77
2023/03/11 04:44:24;;;;;;;0.90;0.70;;;;;;;9.52;73.80;93333.25;5044195;28;20053;-77
2023/03/11 04:46:49;;;;;;;0.90;0.70;;;;;;;9.89;70.98;93395.38;5030999;28;20427;-77
2023/03/11 04:49:15;;;;;;;0.60;0.60;;;;;;;9.42;71.42;93325.59;5030713;28;20476;-77
2023/03/11 04:51:41;;;;;;;0.55;0.40;;;;;;;10.00;70.46;93383.34;5029395;28;20048;-77
2023/03/11 04:54:07;;;;;;;2.15;0.65;;;;;;;10.04;70.14;93386.97;5044654;28;20096;-77
2023/03/11 04:56:32;;;;;;;0.90;0.65;;;;;;;9.45;70.23;93293.25;5018741;28;20041;-77
2023/03/11 04:58:58;;;;;;;0.93;0.70;;;;;;;9.55;70.77;93305.38;5010663;28;20041;-77
2023/03/11 05:01:23;;;;;;;3.15;0.90;;;;;;;9.46;70.15;93297.41;5009376;28;20165;-75
2023/03/11 05:03:49;;;;;;;0.63;0.63;;;;;;;10.06;69.85;93386.66;5025761;28;20029;-74
2023/03/11 05:06:14;;;;;;;0.60;0.60;;;;;;;10.29;69.11;93409.25;5030009;28;20034;-77
2023/03/11 05:08:40;;;;;;;0.70;0.55;;;;;;;10.11;69.21;93380.41;5012095;28;20030;-75
2023/03/11 05:11:05;;;;;;;0.75;0.75;;;;;;;10.07;69.06;93383.66;5029420;28;20025;-75
2023/03/11 05:13:31;;;;;;;0.50;0.50;;;;;;;9.35;69.01;93288.25;5029667;28;20026;-75
2023/03/11 05:15:56;;;;;;;0.60;0.50;;;;;;;9.86;68.71;93364.22;5029329;28;20043;-75
2023/03/11 05:18:22;;;;;;;1.10;0.70;;;;;;;9.97;67.71;93383.22;5029833;28;20411;-75
2023/03/11 05:20:47;;;;;;;1.77;0.57;;;;;;;10.08;68.83;93402.97;5025131;28;20425;-75
2023/03/11 05:23:12;;;;;;;1.25;0.70;;;;;;;9.94;68.82;93384.63;5008020;28;20028;-75
2023/03/11 05:25:38;;;;;;;0.90;0.60;;;;;;;10.19;68.07;93420.16;5010150;28;20412;-75
2023/03/11 05:28:03;;;;;;;1.13;0.80;;;;;;;9.51;67.00;93320.31;5010603;28;20022;-76
2023/03/11 05:30:29;;;;;;;0.70;0.60;;;;;;;10.10;67.50;93413.28;5010102;28;20026;-75
2023/03/11 05:32:55;;;;;;;1.83;0.80;;;;;;;9.95;68.07;93406.59;5019207;28;20052;-76
2023/03/11 05:35:20;;;;;;;0.80;0.60;;;;;;;10.18;68.61;93444.31;5029777;28;20040;-76
2023/03/11 05:37:48;;;;;;;1.55;0.82;;;;;;;10.17;67.43;93446.19;5029407;28;20056;-76
2023/03/11 05:40:14;;;;;;;0.55;0.55;;;;;;;9.58;67.35;93355.81;5029914;28;20056;-76
2023/03/11 05:42:40;;;;;;;1.48;0.60;;;;;;;9.86;67.93;93380.09;5029421;28;20047;-76
2023/03/11 05:45:06;;;;;;;0.63;0.60;;;;;;;10.15;69.38;93442.25;5029991;28;20368;-76
2023/03/11 05:47:32;;;;;;;1.23;0.70;;;;;;;10.31;68.57;93461.91;5029552;28;20482;-76
2023/03/11 05:49:57;;;;;;;1.65;0.90;;;;;;;10.41;66.88;93464.25;5044987;28;20088;-76
2023/03/11 05:52:23;;;;;;;1.00;0.70;;;;;;;10.40;66.62;93462.69;5044435;28;20033;-76
2023/03/11 05:54:52;;;;;;;0.85;0.68;;;;;;;9.87;67.10;93402.84;5030042;28;20443;-76
2023/03/11 05:57:18;;;;;;;3.20;0.80;;;;;;;10.34;69.05;93469.25;5033021;28;20099;-76
2023/03/11 05:59:44;;;;;;;2.58;0.90;;;;;;;9.68;68.62;93365.31;5029870;28;20515;-76
2023/03/11 06:02:09;;;;;;;1.88;1.00;;;;;;;10.19;69.77;93456.47;5013128;28;20477;-76
2023/03/11 06:04:35;;;;;;;1.38;0.88;;;;;;;9.86;69.48;93409.22;5013823;28;20057;-76
2023/03/11 06:07:01;;;;;;;1.40;0.90;;;;;;;9.89;68.51;93413.13;5019342;28;20040;-77
2023/03/11 06:09:26;;;;;;;2.80;0.95;;;;;;;10.02;68.60;93436.81;5034116;28;20034;-77
2023/03/11 06:11:52;;;;;;;1.25;0.82;;;;;;;10.41;68.11;93501.34;5033758;28;20109;-78
2023/03/11 06:14:17;;;;;;;1.52;0.73;;;;;;;9.95;68.07;93427.75;5033195;28;20033;-77
2023/03/11 06:16:43;;;;;;;2.25;0.80;;;;;;;9.65;69.45;93409.06;5014049;28;20037;-77
2023/03/11 06:19:08;;;;;;;1.60;0.98;;;;;;;9.82;70.76;93439.28;5026240;28;20585;-77
2023/03/11 06:21:34;;;;;;;4.25;1.05;;;;;;;10.24;70.59;93504.78;5031958;28;20041;-77
2023/03/11 06:23:59;;;;;;;4.10;0.90;;;;;;;9.46;70.63;93394.56;5016694;28;20021;-77
2023/03/11 06:26:25;;;;;;;2.30;1.10;;;;;;;8.93;70.25;93315.41;5012489;28;20037;-77
2023/03/11 06:28:51;;;;;;;2.50;1.17;;;;;;;9.66;72.66;93460.13;5012415;28;20124;-77
2023/03/11 06:31:25;;;;;;;1.58;1.10;;;;;;;10.08;72.19;93503.63;5063860;28;20488;-77
2023/03/11 06:33:52;;;;;;;0.82;0.70;;;;;;;9.31;73.38;93402.94;5032815;28;20072;-77
2023/03/11 06:36:19;;;;;;;2.88;0.80;;;;;;;9.59;73.80;93438.63;5049828;28;20083;-77
2023/03/11 06:38:45;;;;;;;2.10;0.93;;;;;;;9.97;73.98;93500.53;5025721;28;20538;-78
2023/03/11 06:41:11;;;;;;;1.63;1.10;;;;;;;9.87;74.07;93492.09;5012797;28;20103;-77
2023/03/11 06:43:36;;;;;;;3.08;1.25;;;;;;;9.27;74.00;93398.25;5021423;28;20057;-77
2023/03/11 06:46:11;;;;;;;2.10;1.25;;;;;;;9.53;75.31;93427.44;5033296;28;20053;-78
2023/03/11 06:48:37;;;;;;;2.55;1.60;;;;;;;9.89;76.51;93481.97;5015512;28;20041;-77
2023/03/11 06:51:02;;;;;;;3.30;1.98;;;;;;;9.84;77.44;93482.88;5033115;28;20025;-76
2023/03/11 06:53:29;;;;;;;5.05;1.95;;;;;;;9.57;76.51;93446.88;5016674;28;20037;-76
2023/03/11 06:56:01;;;;;;;4.82;2.17;;;;;;;9.75;77.83;93462.81;5012805;28;20482;-76
2023/03/11 06:58:27;;;;;;;2.95;1.70;;;;;;;9.41;76.30;93423.81;5060474;28;20033;-77
2023/03/11 07:00:52;;;;;;;3.30;1.77;;;;;;;9.92;76.20;93500.66;5032091;28;20045;-76
2023/03/11 07:03:18;;;;;;;4.20;1.55;;;;;;;9.91;75.24;93506.28;5032000;28;20559;-76
2023/03/11 07:05:44;;;;;;;3.80;1.52;;;;;;;9.92;75.20;93505.16;5032583;28;20030;-76
2023/03/11 07:08:09;;;;;;;4.90;1.40;;;;;;;9.61;74.31;93468.97;5029766;28;20036;-76
2023/03/11 07:10:34;;;;;;;3.38;1.48;;;;;;;9.94;74.35;93505.66;5030552;28;20506;-77
2023/03/11 07:13:00;;;;;;;2.50;1.05;;;;;;;9.90;74.34;93520.59;5031727;28;20566;-76
2023/03/11 07:15:25;;;;;;;3.92;1.83;;;;;;;9.05;77.50;93385.13;5032154;28;20099;-76
2023/03/11 07:17:51;;;;;;;3.08;1.80;;;;;;;9.16;76.78;93412.84;5032496;28;20056;-76
2023/03/11 07:20:16;;;;;;;5.40;2.38;;;;;;;9.56;76.40;93471.78;5031544;28;20500;-76
2023/03/11 07:22:42;;;;;;;5.00;1.90;;;;;;;9.93;77.47;93498.78;5046406;28;20152;-76
2023/03/11 07:25:07;;;;;;;2.97;1.65;;;;;;;9.52;75.23;93444.38;5031785;28;20163;-76
2023/03/11 07:27:33;;;;;;;3.88;1.60;;;;;;;9.49;75.52;93423.81;5031691;28;20045;-76
2023/03/11 07:30:00;;;;;;;1.58;1.10;;;;;;;10.00;74.51;93496.47;5031483;28;20361;-76
2023/03/11 07:32:25;;;;;;;3.10;1.60;;;;;;;9.29;73.82;93377.56;5046411;28;20092;-76
2023/03/11 07:34:51;;;;;;;3.92;1.70;;;;;;;10.11;76.53;93487.13;5030275;28;20128;-76
2023/03/11 07:37:16;;;;;;;4.43;1.60;;;;;;;10.18;74.03;93498.06;5031217;28;20034;-76
2023/03/11 07:39:42;;;;;;;9.70;2.03;;;;;;;9.52;74.32;93364.22;5031308;28;20033;-76
2023/03/11 07:42:07;;;;;;;3.42;2.10;;;;;;;10.26;73.34;93477.97;5027585;28;20124;-77
2023/03/11 07:44:32;;;;;;;3.80;1.98;;;;;;;10.15;72.58;93461.56;5011575;28;20052;-77
2023/03/11 07:47:01;;;;;;;4.53;2.30;;;;;;;10.22;73.95;93453.97;5011822;28;20538;-77
2023/03/11 07:49:27;;;;;;;4.15;1.90;;;;;;;10.26;70.97;93464.72;5011852;28;20396;-77
2023/03/11 07:51:52;;;;;;;3.28;1.85;;;;;;;10.24;69.91;93448.34;5019389;28;20033;-76
2023/03/11 07:54:18;;;;;;;3.05;1.60;;;;;;;9.86;68.68;93389.91;5023137;28;20034;-77
2023/03/11 07:56:43;;;;;;;3.20;1.58;;;;;;;10.34;67.79;93454.13;5012722;28;20149;-78
2023/03/11 07:59:08;;;;;;;2.38;1.67;;;;;;;10.23;69.62;93423.72;5023364;28;20037;-77
2023/03/11 08:01:39;;;;;;;5.93;1.90;;;;;;;10.11;69.49;93398.94;5031466;28;20045;-77
2023/03/11 08:04:07;;;;;;;2.53;1.40;;;;;;;10.02;68.15;93362.66;5031426;28;20044;-77
2023/03/11 08:06:35;;;;;;;2.20;1.50;;;;;;;10.40;67.80;93391.13;5030985;28;20123;-78
2023/03/11 08:09:06;;;;;;;3.53;1.52;;;;;;;10.52;68.74;93407.19;5014051;28;20049;-76
2023/03/11 08:11:32;;;;;;;2.08;1.52;;;;;;;10.19;67.25;93345.22;5013385;28;20053;-76
2023/03/11 08:13:58;;;;;;;1.85;1.25;;;;;;;10.70;66.11;93424.59;5030706;28;20526;-76
2023/03/11 08:16:24;;;;;;;3.58;1.90;;;;;;;10.69;67.06;93403.69;5031281;28;20064;-75
2023/03/11 08:18:51;;;;;;;7.63;1.77;;;;;;;10.85;67.84;93402.09;5031331;28;20048;-77
2023/03/11 08:21:20;;;;;;;3.25;1.58;;;;;;;10.97;68.16;93398.78;5029822;28;20051;-78
2023/03/11 08:23:46;;;;;;;4.82;1.30;;;;;;;10.69;66.99;93340.06;5029468;28;20036;-78
2023/03/11 08:26:15;;;;;;;10.57;1.63;;;;;;;11.04;65.81;93388.44;5029603;28;20037;-78
2023/03/11 08:28:40;;;;;;;2.13;1.33;;;;;;;10.48;64.56;93294.94;5020722;28;20034;-75
2023/03/11 08:31:24;;;;;;;5.65;1.40;;;;;;;11.20;64.85;93389.47;5011203;28;20033;-76
2023/03/11 08:33:51;;;;;;;5.88;1.50;;;;;;;11.28;63.42;93377.25;5011361;28;20060;-78
2023/03/11 08:36:17;;;;;;;7.40;2.33;;;;;;;10.95;62.35;93298.31;5010169;28;20038;-78
2023/03/11 08:38:42;;;;;;;26.40;3.25;;;;;;;11.26;65.22;93310.44;5060551;28;20514;-78
2023/03/11 08:41:08;;;;;;;3.55;1.58;;;;;;;11.47;65.47;93335.13;5030197;28;20442;-78
2023/03/11 08:43:34;;;;;;;4.45;1.45;;;;;;;11.07;63.30;93269.19;5025650;28;20058;-75
2023/03/11 08:46:01;;;;;;;6.63;1.48;;;;;;;11.18;62.10;93309.41;5011218;28;20462;-78
2023/03/11 08:48:27;;;;;;;14.48;2.13;;;;;;;11.64;62.37;93356.25;5009866;28;20156;-76
2023/03/11 08:50:53;;;;;;;3.35;1.50;;;;;;;11.68;60.65;93359.78;5011610;28;20045;-78
2023/03/11 08:53:18;;;;;;;11.52;1.95;;;;;;;11.84;62.42;93352.81;5010368;28;20037;-78
2023/03/11 08:55:44;;;;;;;11.85;1.80;;;;;;;11.42;60.64;93280.38;5040361;28;20037;-76
2023/03/11 08:58:09;;;;;;;12.65;2.08;;;;;;;11.56;61.21;93280.88;5020839;28;20038;-76
2023/03/11 09:00:34;;;;;;;4.40;1.48;;;;;;;11.56;57.55;93296.81;5010814;28;20037;-76
2023/03/11 09:03:00;;;;;;;4.78;1.10;;;;;;;11.97;58.00;93366.97;5010194;28;20076;-76
2023/03/11 09:05:25;;;;;;;8.52;1.98;;;;;;;11.76;57.45;93311.19;5050388;28;20033;-76
2023/03/11 09:07:51;;;;;;;15.25;1.60;;;;;;;11.80;59.02;93322.72;5016101;28;20029;-76
2023/03/11 09:10:16;;;;;;;2.17;1.15;;;;;;;11.99;59.44;93370.84;5009342;28;20029;-76
2023/03/11 09:12:42;;;;;;;9.02;1.40;;;;;;;11.16;57.54;93238.09;5010467;28;20040;-76
2023/03/11 09:15:09;;;;;;;10.40;1.95;;;;;;;11.93;57.85;93337.59;5009367;28;20026;-76
2023/03/11 09:17:35;;;;;;;7.47;1.77;;;;;;;11.88;59.68;93343.13;5029759;28;20563;-76
2023/03/11 09:20:00;;;;;;;3.78;1.17;;;;;;;11.73;57.01;93313.69;5029220;28;20032;-77
2023/03/11 09:22:26;;;;;;;4.18;1.35;;;;;;;11.91;58.11;93304.50;5026339;28;20535;-77
2023/03/11 09:24:51;;;;;;;4.05;1.42;;;;;;;11.42;57.46;93211.34;5054143;28;20042;-77
2023/03/11 09:27:17;;;;;;;12.75;1.58;;;;;;;12.12;56.10;93293.84;5011369;28;20489;-77
2023/03/11 09:29:42;;;;;;;5.82;1.20;;;;;;;11.94;57.71;93278.06;5013852;28;20439;-76
2023/03/11 09:32:12;;;;;;;5.50;1.50;;;;;;;12.47;56.93;93340.22;5048150;28;20024;-78
2023/03/11 09:34:37;;;;;;;4.68;1.65;;;;;;;12.36;57.42;93299.97;5034166;28;20113;-77
2023/03/11 09:37:03;;;;;;;5.45;1.20;;;;;;;12.47;58.11;93326.91;5034367;28;20068;-77
2023/03/11 09:39:28;;;;;;;3.50;1.40;;;;;;;12.47;57.90;93315.50;5030987;28;20491;-77
2023/03/11 09:41:57;;;;;;;4.00;1.15;;;;;;;12.52;57.63;93325.91;5032933;28;20103;-77
2023/03/11 09:44:27;;;;;;;2.47;1.27;;;;;;;12.53;57.71;93335.47;5031994;28;20443;-77
2023/03/11 09:46:55;;;;;;;4.90;1.25;;;;;;;12.64;55.63;93331.28;5058995;28;20043;-77
2023/03/11 09:49:23;;;;;;;5.63;1.65;;;;;;;12.65;55.09;93343.47;5033015;28;20030;-77
2023/03/11 09:52:00;;;;;;;3.45;1.40;;;;;;;12.58;56.37;93303.34;5029225;28;20053;-77
2023/03/11 09:54:29;;;;;;;7.95;1.50;;;;;;;12.94;56.32;93331.84;5030698;28;20033;-77
2023/03/11 09:56:55;;;;;;;7.40;1.20;;;;;;;12.60;55.79;93250.59;5049350;28;20479;-77
2023/03/11 09:59:30;;;;;;;3.40;1.60;;;;;;;12.35;57.17;93178.06;5029921;28;20034;-77
2023/03/11 10:01:59;;;;;;;4.78;1.75;;;;;;;12.77;56.73;93266.34;5014498;28;20440;-77
2023/03/11 10:04:37;;;;;;;3.08;1.50;;;;;;;13.14;54.28;93321.13;5036761;28;20056;-77
2023/03/11 10:07:11;;;;;;;2.97;1.30;;;;;;;12.92;51.61;93260.34;5023025;28;20026;-77
2023/03/11 10:09:49;;;;;;;3.92;1.40;;;;;;;13.53;47.48;93345.47;5014357;28;20045;-77
2023/03/11 10:12:48;;;;;;;5.35;1.45;;;;;;;13.96;49.92;93322.75;5011896;28;20136;-77
2023/03/11 10:15:47;;;;;;;5.95;1.50;;;;;;;14.71;47.45;93326.28;5016813;28;20457;-77
2023/03/11 10:18:54;;;;;;;2.72;1.27;;;;;;;15.28;44.61;93340.97;5032734;28;20460;-77
2023/03/11 10:21:27;;;;;;;2.10;0.88;;;;;;;15.37;45.77;93302.28;4975514;28;20049;-77
2023/03/11 10:24:13;;;;;;;2.90;1.00;;;;;;;15.62;43.75;93342.16;5011862;28;20404;-77
2023/03/11 10:26:46;;;;;;;5.45;1.50;;;;;;;15.37;45.39;93337.00;5031829;28;20041;-76
2023/03/11 10:29:30;;;;;;;2.95;1.30;;;;;;;16.00;44.77;93358.25;5034000;28;20030;-77
2023/03/11 10:32:21;;;;;;;3.55;1.00;;;;;;;15.68;44.72;93317.47;5031799;28;20041;-77
2023/03/11 10:35:10;;;;;;;3.53;1.17;;;;;;;15.36;45.16;93307.97;5017488;28;20072;-78
2023/03/11 10:37:43;;;;;;;3.13;1.40;;;;;;;14.93;46.20;93324.91;5030509;28;20105;-76
2023/03/11 10:40:38;;;;;;;8.13;1.27;;;;;;;14.62;46.72;93334.44;5011135;28;20034;-77
2023/03/11 10:43:14;;;;;;;4.70;2.13;;;;;;;14.22;46.49;93331.84;5011820;28;20122;-77
2023/03/11 10:45:43;;;;;;;7.75;1.45;;;;;;;13.59;50.86;93250.13;5013204;28;20045;-77
2023/03/11 10:48:14;;;;;;;4.20;1.52;;;;;;;13.90;51.85;93300.88;5011954;28;20519;-76
2023/03/11 10:51:03;;;;;;;2.78;1.55;;;;;;;13.72;53.25;93320.94;5026126;28;20037;-76
2023/03/11 10:53:29;;;;;;;8.13;1.45;;;;;;;13.20;56.39;93300.38;5031572;28;20096;-76
2023/03/11 10:55:57;;;;;;;9.10;2.38;;;;;;;12.87;63.10;93300.50;5030915;28;20136;-76
2023/03/11 10:58:25;;;;;;;4.80;1.35;;;;;;;12.95;62.46;93352.03;5033047;28;20033;-76
2023/03/11 11:01:11;;;;;;;3.65;1.52;;;;;;;12.38;64.64;93358.13;5015073;28;20087;-76
2023/03/11 11:03:41;;;;;;;4.25;1.60;;;;;;;11.77;66.65;93309.31;5031544;28;20474;-76
2023/03/11 11:06:27;;;;;;;4.10;1.58;;;;;;;11.72;66.53;93296.97;5032219;28;20091;-77
2023/03/11 11:09:14;;;;;;;2.58;1.40;;;;;;;12.13;65.81;93361.81;5032399;28;20120;-77
2023/03/11 11:11:41;;;;;;;3.60;1.75;;;;;;;12.25;65.46;93373.28;5032477;28;20041;-77
2023/03/11 11:14:09;;;;;;;2.63;1.33;;;;;;;11.81;58.59;93283.66;5032206;28;20393;-77
2023/03/11 11:16:35;;;;;;;1.60;1.10;;;;;;;12.57;60.54;93345.13;5012687;28;20030;-77
2023/03/11 11:19:12;;;;;;;5.95;1.50;;;;;;;12.89;63.40;93348.03;5014252;28;20056;-77
2023/03/11 11:21:48;;;;;;;2.17;1.40;;;;;;;13.28;61.34;93330.66;5032708;28;20480;-76
2023/03/11 11:24:15;;;;;;;1.58;1.13;;;;;;;13.66;63.04;93325.69;5031794;28;20127;-77
2023/03/11 11:27:10;;;;;;;5.25;2.00;;;;;;;13.75;58.75;93314.91;5032681;28;20041;-77
2023/03/11 11:29:35;;;;;;;10.05;1.95;;;;;;;13.68;58.84;93317.38;5030813;28;20140;-76
2023/03/11 11:32:24;;;;;;;9.90;1.48;;;;;;;13.91;59.90;93305.09;5031388;28;20050;-77
2023/03/11 11:35:04;;;;;;;6.38;1.23;;;;;;;13.80;57.97;93272.84;5032483;28;20037;-76
2023/03/11 11:37:36;;;;;;;4.00;1.52;;;;;;;13.51;56.67;93252.59;5026544;28;20034;-76
2023/03/11 11:40:14;;;;;;;10.10;2.22;;;;;;;13.80;53.63;93301.38;5034608;28;20060;-76
2023/03/11 11:42:54;;;;;;;13.70;1.80;;;;;;;13.53;52.40;93268.25;5030243;28;20033;-76